sensor_id;sensor_type;location;lat;lon;timestamp;pressure;altitude;pressure_sealevel;temperature;humidity
77793;BME280;66983;51.438;5.438;2024-01-16T00:00:33;100918.75;;;3.44;100.00
77793;BME280;66983;51.438;5.438;2024-01-16T00:02:59;100919.63;;;3.44;100.00
77793;BME280;66983;51.438;5.438;2024-01-16T00:05:25;100910.81;;;3.45;100.00
77793;BME280;66983;51.438;5.438;2024-01-16T00:07:50;100915.22;;;3.46;100.00
77793;BME280;66983;51.438;5.438;2024-01-16T00:10:16;100913.44;;;3.47;100.00
77793;BME280;66983;51.438;5.438;2024-01-16T00:12:41;100889.00;;;3.31;100.00
77793;BME280;66983;51.438;5.438;2024-01-16T00:15:08;100915.16;;;3.51;100.00
77793;BME280;66983;51.438;5.438;2024-01-16T00:17:34;100923.09;;;3.49;100.00
77793;BME280;66983;51.438;5.438;2024-01-16T00:20:00;100903.84;;;3.41;100.00
77793;BME280;66983;51.438;5.438;2024-01-16T00:22:29;100926.63;;;3.45;100.00
77793;BME280;66983;51.438;5.438;2024-01-16T00:24:55;100920.44;;;3.49;100.00
77793;BME280;66983;51.438;5.438;2024-01-16T00:27:20;100923.09;;;3.49;100.00
77793;BME280;66983;51.438;5.438;2024-01-16T00:29:46;100920.44;;;3.51;100.00
77793;BME280;66983;51.438;5.438;2024-01-16T00:32:12;100916.94;;;3.49;100.00
77793;BME280;66983;51.438;5.438;2024-01-16T00:34:42;100926.59;;;3.51;100.00
77793;BME280;66983;51.438;5.438;2024-01-16T00:37:07;100931.84;;;3.53;100.00
77793;BME280;66983;51.438;5.438;2024-01-16T00:39:33;100930.09;;;3.53;100.00
77793;BME280;66983;51.438;5.438;2024-01-16T00:41:59;100930.09;;;3.53;100.00
77793;BME280;66983;51.438;5.438;2024-01-16T00:44:25;100925.69;;;3.54;100.00
77793;BME280;66983;51.438;5.438;2024-01-16T00:46:50;100929.19;;;3.56;100.00
77793;BME280;66983;51.438;5.438;2024-01-16T00:49:16;100928.28;;;3.57;100.00
77793;BME280;66983;51.438;5.438;2024-01-16T00:51:41;100923.88;;;3.59;100.00
77793;BME280;66983;51.438;5.438;2024-01-16T00:54:07;100927.41;;;3.58;100.00
77793;BME280;66983;51.438;5.438;2024-01-16T00:56:35;100929.16;;;3.60;100.00
77793;BME280;66983;51.438;5.438;2024-01-16T00:59:01;100917.75;;;3.58;100.00
77793;BME280;66983;51.438;5.438;2024-01-16T01:01:27;100929.13;;;3.63;100.00
77793;BME280;66983;51.438;5.438;2024-01-16T01:03:53;100927.38;;;3.61;100.00
77793;BME280;66983;51.438;5.438;2024-01-16T01:06:18;100923.84;;;3.63;100.00
77793;BME280;66983;51.438;5.438;2024-01-16T01:08:44;100928.19;;;3.64;100.00
77793;BME280;66983;51.438;5.438;2024-01-16T01:11:10;100922.06;;;3.64;100.00
77793;BME280;66983;51.438;5.438;2024-01-16T01:13:36;100919.47;;;3.62;100.00
77793;BME280;66983;51.438;5.438;2024-01-16T01:16:01;100926.50;;;3.63;100.00
77793;BME280;66983;51.438;5.438;2024-01-16T01:18:27;100936.19;;;3.60;100.00
77793;BME280;66983;51.438;5.438;2024-01-16T01:20:52;100924.78;;;3.58;100.00
77793;BME280;66983;51.438;5.438;2024-01-16T01:23:18;100930.91;;;3.60;100.00
77793;BME280;66983;51.438;5.438;2024-01-16T01:25:44;100929.16;;;3.59;100.00
77793;BME280;66983;51.438;5.438;2024-01-16T01:28:10;100935.31;;;3.58;100.00
77793;BME280;66983;51.438;5.438;2024-01-16T01:30:36;100937.06;;;3.57;100.00
77793;BME280;66983;51.438;5.438;2024-01-16T01:33:02;100936.19;;;3.57;100.00
77793;BME280;66983;51.438;5.438;2024-01-16T01:35:28;100936.19;;;3.57;100.00
77793;BME280;66983;51.438;5.438;2024-01-16T01:37:53;100933.56;;;3.58;100.00
77793;BME280;66983;51.438;5.438;2024-01-16T01:40:19;100930.91;;;3.58;100.00
77793;BME280;66983;51.438;5.438;2024-01-16T01:42:44;100933.56;;;3.58;100.00
77793;BME280;66983;51.438;5.438;2024-01-16T01:45:11;100935.31;;;3.56;100.00
77793;BME280;66983;51.438;5.438;2024-01-16T01:47:41;100936.19;;;3.57;100.00
77793;BME280;66983;51.438;5.438;2024-01-16T01:50:10;100927.41;;;3.56;100.00
77793;BME280;66983;51.438;5.438;2024-01-16T01:52:38;100936.19;;;3.57;100.00
77793;BME280;66983;51.438;5.438;2024-01-16T01:55:08;100943.22;;;3.59;100.00
77793;BME280;66983;51.438;5.438;2024-01-16T01:57:36;100933.56;;;3.58;100.00
77793;BME280;66983;51.438;5.438;2024-01-16T02:00:02;100935.31;;;3.56;100.00
77793;BME280;66983;51.438;5.438;2024-01-16T02:02:40;100937.06;;;3.57;100.00
77793;BME280;66983;51.438;5.438;2024-01-16T02:05:06;100933.53;;;3.60;100.00
77793;BME280;66983;51.438;5.438;2024-01-16T02:07:33;100931.78;;;3.60;100.00
77793;BME280;66983;51.438;5.438;2024-01-16T02:09:59;100930.00;;;3.62;100.00
77793;BME280;66983;51.438;5.438;2024-01-16T02:12:26;100944.97;;;3.60;100.00
77793;BME280;66983;51.438;5.438;2024-01-16T02:14:51;100947.56;;;3.63;100.00
77793;BME280;66983;51.438;5.438;2024-01-16T02:17:17;100945.75;;;3.65;100.00
77793;BME280;66983;51.438;5.438;2024-01-16T02:19:42;100956.31;;;3.65;100.00
77793;BME280;66983;51.438;5.438;2024-01-16T02:22:14;100963.31;;;3.66;100.00
77793;BME280;66983;51.438;5.438;2024-01-16T02:24:41;100953.69;;;3.64;100.00
77793;BME280;66983;51.438;5.438;2024-01-16T02:27:07;100962.44;;;3.69;100.00
77793;BME280;66983;51.438;5.438;2024-01-16T02:29:32;100953.66;;;3.67;100.00
77793;BME280;66983;51.438;5.438;2024-01-16T02:31:58;100965.09;;;3.66;100.00
77793;BME280;66983;51.438;5.438;2024-01-16T02:34:24;100958.94;;;3.67;100.00
77793;BME280;66983;51.438;5.438;2024-01-16T02:36:49;100963.44;;;3.56;100.00
77793;BME280;66983;51.438;5.438;2024-01-16T02:39:15;100958.19;;;3.53;100.00
77793;BME280;66983;51.438;5.438;2024-01-16T02:41:40;100953.81;;;3.50;100.00
77793;BME280;66983;51.438;5.438;2024-01-16T02:44:06;100961.72;;;3.50;100.00
77793;BME280;66983;51.438;5.438;2024-01-16T02:46:31;100959.94;;;3.54;100.00
77793;BME280;66983;51.438;5.438;2024-01-16T02:48:58;100947.66;;;3.51;100.00
77793;BME280;66983;51.438;5.438;2024-01-16T02:51:23;100951.16;;;3.53;100.00
77793;BME280;66983;51.438;5.438;2024-01-16T02:53:49;100951.16;;;3.53;100.00
77793;BME280;66983;51.438;5.438;2024-01-16T02:56:14;100954.69;;;3.49;100.00
77793;BME280;66983;51.438;5.438;2024-01-16T02:58:40;100951.19;;;3.49;100.00
77793;BME280;66983;51.438;5.438;2024-01-16T03:01:05;100952.06;;;3.49;100.00
77793;BME280;66983;51.438;5.438;2024-01-16T03:03:31;100948.53;;;3.52;100.00
77793;BME280;66983;51.438;5.438;2024-01-16T03:05:57;100957.31;;;3.52;100.00
77793;BME280;66983;51.438;5.438;2024-01-16T03:08:22;100939.78;;;3.48;100.00
77793;BME280;66983;51.438;5.438;2024-01-16T03:10:48;100949.38;;;3.58;100.00
77793;BME280;66983;51.438;5.438;2024-01-16T03:13:14;100952.84;;;3.62;100.00
77793;BME280;66983;51.438;5.438;2024-01-16T03:15:40;100947.56;;;3.63;100.00
77793;BME280;66983;51.438;5.438;2024-01-16T03:18:06;100949.28;;;3.64;100.00
77793;BME280;66983;51.438;5.438;2024-01-16T03:20:32;100946.66;;;3.64;100.00
77793;BME280;66983;51.438;5.438;2024-01-16T03:22:57;100937.88;;;3.64;100.00
77793;BME280;66983;51.438;5.438;2024-01-16T03:25:23;100947.59;;;3.62;100.00
77793;BME280;66983;51.438;5.438;2024-01-16T03:27:49;100947.59;;;3.60;100.00
77793;BME280;66983;51.438;5.438;2024-01-16T03:30:14;100951.97;;;3.61;100.00
77793;BME280;66983;51.438;5.438;2024-01-16T03:32:40;100943.22;;;3.59;100.00
77793;BME280;66983;51.438;5.438;2024-01-16T03:35:06;100935.28;;;3.62;100.00
77793;BME280;66983;51.438;5.438;2024-01-16T03:37:32;100941.38;;;3.64;100.00
77793;BME280;66983;51.438;5.438;2024-01-16T03:39:58;100923.88;;;3.60;100.00
77793;BME280;66983;51.438;5.438;2024-01-16T03:42:24;100926.50;;;3.60;100.00
77793;BME280;66983;51.438;5.438;2024-01-16T03:44:49;100931.78;;;3.62;100.00
77793;BME280;66983;51.438;5.438;2024-01-16T03:47:15;100923.00;;;3.58;100.00
77793;BME280;66983;51.438;5.438;2024-01-16T03:49:41;100926.50;;;3.60;100.00
77793;BME280;66983;51.438;5.438;2024-01-16T03:52:06;100917.75;;;3.58;100.00
77793;BME280;66983;51.438;5.438;2024-01-16T03:54:32;100928.31;;;3.55;100.00
77793;BME280;66983;51.438;5.438;2024-01-16T03:56:57;100925.69;;;3.52;100.00
77793;BME280;66983;51.438;5.438;2024-01-16T03:59:23;100917.78;;;3.52;100.00
77793;BME280;66983;51.438;5.438;2024-01-16T04:01:49;100914.28;;;3.50;100.00
77793;BME280;66983;51.438;5.438;2024-01-16T04:04:15;100910.78;;;3.51;100.00
77793;BME280;66983;51.438;5.438;2024-01-16T04:06:41;100910.78;;;3.50;100.00
77793;BME280;66983;51.438;5.438;2024-01-16T04:09:08;100902.03;;;3.45;100.00
77793;BME280;66983;51.438;5.438;2024-01-16T04:11:35;100913.41;;;3.53;100.00
77793;BME280;66983;51.438;5.438;2024-01-16T04:14:00;100901.13;;;3.52;100.00
77793;BME280;66983;51.438;5.438;2024-01-16T04:16:26;100898.50;;;3.49;100.00
77793;BME280;66983;51.438;5.438;2024-01-16T04:18:52;100895.00;;;3.45;100.00
77793;BME280;66983;51.438;5.438;2024-01-16T04:21:17;100898.53;;;3.46;100.00
77793;BME280;66983;51.438;5.438;2024-01-16T04:23:43;100888.00;;;3.44;100.00
77793;BME280;66983;51.438;5.438;2024-01-16T04:26:08;100888.03;;;3.41;100.00
77793;BME280;66983;51.438;5.438;2024-01-16T04:28:34;100884.53;;;3.39;100.00
77793;BME280;66983;51.438;5.438;2024-01-16T04:31:03;100885.41;;;3.38;100.00
77793;BME280;66983;51.438;5.438;2024-01-16T04:33:29;100881.97;;;3.31;100.00
77793;BME280;66983;51.438;5.438;2024-01-16T04:35:56;100889.88;;;3.33;100.00
77793;BME280;66983;51.438;5.438;2024-01-16T04:38:21;100892.53;;;3.30;100.00
77793;BME280;66983;51.438;5.438;2024-01-16T04:40:47;100885.50;;;3.29;100.00
77793;BME280;66983;51.438;5.438;2024-01-16T04:43:12;100894.31;;;3.26;100.00
77793;BME280;66983;51.438;5.438;2024-01-16T04:45:38;100885.56;;;3.23;100.00
77793;BME280;66983;51.438;5.438;2024-01-16T04:48:04;100892.63;;;3.18;100.00
77793;BME280;66983;51.438;5.438;2024-01-16T04:50:29;100889.09;;;3.17;100.00
77793;BME280;66983;51.438;5.438;2024-01-16T04:52:58;100896.16;;;3.14;100.00
77793;BME280;66983;51.438;5.438;2024-01-16T04:55:28;100889.13;;;3.14;100.00
77793;BME280;66983;51.438;5.438;2024-01-16T04:57:57;100891.75;;;3.14;100.00
77793;BME280;66983;51.438;5.438;2024-01-16T05:00:23;100893.53;;;3.14;100.00
77793;BME280;66983;51.438;5.438;2024-01-16T05:02:49;100895.34;;;3.09;100.00
77793;BME280;66983;51.438;5.438;2024-01-16T05:05:15;100890.06;;;3.10;100.00
77793;BME280;66983;51.438;5.438;2024-01-16T05:07:41;100884.84;;;3.05;100.00
77793;BME280;66983;51.438;5.438;2024-01-16T05:10:09;100887.50;;;3.01;100.00
77793;BME280;66983;51.438;5.438;2024-01-16T05:12:35;100875.19;;;3.04;100.00
77793;BME280;66983;51.438;5.438;2024-01-16T05:15:00;100891.00;;;3.03;100.00
77793;BME280;66983;51.438;5.438;2024-01-16T05:17:26;100875.22;;;3.01;100.00
77793;BME280;66983;51.438;5.438;2024-01-16T05:19:51;100866.47;;;2.95;100.00
77793;BME280;66983;51.438;5.438;2024-01-16T05:22:17;100872.63;;;2.91;100.00
77793;BME280;66983;51.438;5.438;2024-01-16T05:24:43;100873.53;;;2.90;100.00
77793;BME280;66983;51.438;5.438;2024-01-16T05:27:08;100865.66;;;2.87;100.00
77793;BME280;66983;51.438;5.438;2024-01-16T05:29:34;100866.50;;;2.89;100.00
77793;BME280;66983;51.438;5.438;2024-01-16T05:32:03;100870.03;;;2.86;100.00
77793;BME280;66983;51.438;5.438;2024-01-16T05:34:29;100868.28;;;2.87;100.00
77793;BME280;66983;51.438;5.438;2024-01-16T05:36:54;100874.41;;;2.87;100.00
77793;BME280;66983;51.438;5.438;2024-01-16T05:39:20;100872.66;;;2.86;100.00
77793;BME280;66983;51.438;5.438;2024-01-16T05:41:46;100865.63;;;2.88;100.00
77793;BME280;66983;51.438;5.438;2024-01-16T05:44:12;100874.41;;;2.90;100.00
77793;BME280;66983;51.438;5.438;2024-01-16T05:46:37;100871.78;;;2.87;100.00
77793;BME280;66983;51.438;5.438;2024-01-16T05:49:03;100882.31;;;2.89;100.00
77793;BME280;66983;51.438;5.438;2024-01-16T05:51:28;100877.91;;;2.88;100.00
77793;BME280;66983;51.438;5.438;2024-01-16T05:53:55;100871.81;;;2.86;100.00
77793;BME280;66983;51.438;5.438;2024-01-16T05:56:20;100867.44;;;2.85;100.00
77793;BME280;66983;51.438;5.438;2024-01-16T05:58:46;100860.44;;;2.82;100.00
77793;BME280;66983;51.438;5.438;2024-01-16T06:01:12;100862.19;;;2.83;100.00
77793;BME280;66983;51.438;5.438;2024-01-16T06:03:40;100867.47;;;2.83;100.00
77793;BME280;66983;51.438;5.438;2024-01-16T06:06:06;100855.19;;;2.81;100.00
77793;BME280;66983;51.438;5.438;2024-01-16T06:08:33;100849.06;;;2.76;100.00
77793;BME280;66983;51.438;5.438;2024-01-16T06:10:58;100859.56;;;2.80;100.00
77793;BME280;66983;51.438;5.438;2024-01-16T06:13:24;100855.22;;;2.76;100.00
77793;BME280;66983;51.438;5.438;2024-01-16T06:15:49;100855.22;;;2.73;100.00
77793;BME280;66983;51.438;5.438;2024-01-16T06:18:15;100864.00;;;2.75;100.00
77793;BME280;66983;51.438;5.438;2024-01-16T06:20:40;100850.84;;;2.73;100.00
77793;BME280;66983;51.438;5.438;2024-01-16T06:23:06;100843.84;;;2.68;100.00
77793;BME280;66983;51.438;5.438;2024-01-16T06:25:32;100857.88;;;2.73;100.00
77793;BME280;66983;51.438;5.438;2024-01-16T06:27:57;100849.13;;;2.69;100.00
77793;BME280;66983;51.438;5.438;2024-01-16T06:30:22;100860.50;;;2.70;100.00
77793;BME280;66983;51.438;5.438;2024-01-16T06:32:49;100856.97;;;2.74;100.00
77793;BME280;66983;51.438;5.438;2024-01-16T06:35:15;100856.97;;;2.74;100.00
77793;BME280;66983;51.438;5.438;2024-01-16T06:37:41;100858.75;;;2.69;100.00
77793;BME280;66983;51.438;5.438;2024-01-16T06:40:07;100861.41;;;2.66;100.00
77793;BME280;66983;51.438;5.438;2024-01-16T06:42:33;100853.53;;;2.63;100.00
77793;BME280;66983;51.438;5.438;2024-01-16T06:44:58;100856.16;;;2.63;100.00
77793;BME280;66983;51.438;5.438;2024-01-16T06:47:24;100857.91;;;2.62;100.00
77793;BME280;66983;51.438;5.438;2024-01-16T06:49:50;100864.06;;;2.64;100.00
77793;BME280;66983;51.438;5.438;2024-01-16T06:52:15;100862.31;;;2.63;100.00
77793;BME280;66983;51.438;5.438;2024-01-16T06:54:41;100862.31;;;2.60;100.00
77793;BME280;66983;51.438;5.438;2024-01-16T06:57:07;100862.38;;;2.56;100.00
77793;BME280;66983;51.438;5.438;2024-01-16T06:59:32;100876.41;;;2.58;100.00
77793;BME280;66983;51.438;5.438;2024-01-16T07:01:58;100872.00;;;2.60;100.00
77793;BME280;66983;51.438;5.438;2024-01-16T07:04:23;100879.03;;;2.58;100.00
77793;BME280;66983;51.438;5.438;2024-01-16T07:06:49;100884.28;;;2.58;100.00
77793;BME280;66983;51.438;5.438;2024-01-16T07:09:14;100887.81;;;2.52;100.00
77793;BME280;66983;51.438;5.438;2024-01-16T07:11:41;100874.69;;;2.51;100.00
77793;BME280;66983;51.438;5.438;2024-01-16T07:14:10;100889.59;;;2.49;100.00
77793;BME280;66983;51.438;5.438;2024-01-16T07:16:36;100880.81;;;2.51;100.00
77793;BME280;66983;51.438;5.438;2024-01-16T07:19:02;100879.06;;;2.46;100.00
77793;BME280;66983;51.438;5.438;2024-01-16T07:21:28;100878.19;;;2.47;100.00
77793;BME280;66983;51.438;5.438;2024-01-16T07:23:54;100884.31;;;2.50;100.00
77793;BME280;66983;51.438;5.438;2024-01-16T07:26:19;100884.31;;;2.52;100.00
77793;BME280;66983;51.438;5.438;2024-01-16T07:28:45;100894.84;;;2.49;100.00
77793;BME280;66983;51.438;5.438;2024-01-16T07:31:13;100891.34;;;2.48;100.00
77793;BME280;66983;51.438;5.438;2024-01-16T07:33:39;100896.59;;;2.53;100.00
77793;BME280;66983;51.438;5.438;2024-01-16T07:36:06;100887.81;;;2.55;100.00
77793;BME280;66983;51.438;5.438;2024-01-16T07:38:31;100885.19;;;2.55;100.00
77793;BME280;66983;51.438;5.438;2024-01-16T07:40:57;100886.94;;;2.55;100.00
77793;BME280;66983;51.438;5.438;2024-01-16T07:43:23;100884.31;;;2.52;100.00
77793;BME280;66983;51.438;5.438;2024-01-16T07:45:49;100878.16;;;2.54;100.00
77793;BME280;66983;51.438;5.438;2024-01-16T07:48:15;100884.28;;;2.59;100.00
77793;BME280;66983;51.438;5.438;2024-01-16T07:50:41;100887.78;;;2.60;100.00
77793;BME280;66983;51.438;5.438;2024-01-16T07:53:06;100893.03;;;2.60;100.00
77793;BME280;66983;51.438;5.438;2024-01-16T07:55:32;100912.28;;;2.62;100.00
77793;BME280;66983;51.438;5.438;2024-01-16T07:57:57;100904.41;;;2.62;100.00
77793;BME280;66983;51.438;5.438;2024-01-16T08:00:23;100913.19;;;2.61;100.00
77793;BME280;66983;51.438;5.438;2024-01-16T08:02:49;100911.41;;;2.66;100.00
77793;BME280;66983;51.438;5.438;2024-01-16T08:05:14;100915.78;;;2.68;100.00
77793;BME280;66983;51.438;5.438;2024-01-16T08:07:43;100919.31;;;2.64;100.00
77793;BME280;66983;51.438;5.438;2024-01-16T08:10:09;100918.44;;;2.64;100.00
77793;BME280;66983;51.438;5.438;2024-01-16T08:12:35;100923.69;;;2.67;100.00
77793;BME280;66983;51.438;5.438;2024-01-16T08:15:03;100906.16;;;2.61;100.00
77793;BME280;66983;51.438;5.438;2024-01-16T08:17:29;100909.66;;;2.62;100.00
77793;BME280;66983;51.438;5.438;2024-01-16T08:19:54;100908.78;;;2.61;100.00
77793;BME280;66983;51.438;5.438;2024-01-16T08:22:20;100914.03;;;2.67;100.00
77793;BME280;66983;51.438;5.438;2024-01-16T08:24:45;100916.66;;;2.69;100.00
77793;BME280;66983;51.438;5.438;2024-01-16T08:27:11;100906.16;;;2.64;100.00
77793;BME280;66983;51.438;5.438;2024-01-16T08:29:36;100923.66;;;2.70;100.00
77793;BME280;66983;51.438;5.438;2024-01-16T08:32:02;100921.03;;;2.71;100.00
77793;BME280;66983;51.438;5.438;2024-01-16T08:34:27;100925.41;;;2.72;100.00
77793;BME280;66983;51.438;5.438;2024-01-16T08:36:53;100924.53;;;2.72;100.00
77793;BME280;66983;51.438;5.438;2024-01-16T08:39:22;100927.16;;;2.72;100.00
77793;BME280;66983;51.438;5.438;2024-01-16T08:41:49;100916.66;;;2.69;100.00
77793;BME280;66983;51.438;5.438;2024-01-16T08:44:14;100925.41;;;2.72;100.00
77793;BME280;66983;51.438;5.438;2024-01-16T08:46:40;100929.78;;;2.73;100.00
77793;BME280;66983;51.438;5.438;2024-01-16T08:49:05;100915.75;;;2.70;100.00
77793;BME280;66983;51.438;5.438;2024-01-16T08:51:31;100910.50;;;2.71;100.00
77793;BME280;66983;51.438;5.438;2024-01-16T08:53:56;100915.75;;;2.70;100.00
77793;BME280;66983;51.438;5.438;2024-01-16T08:56:22;100926.25;;;2.76;100.00
77793;BME280;66983;51.438;5.438;2024-01-16T08:58:47;100910.50;;;2.73;100.00
77793;BME280;66983;51.438;5.438;2024-01-16T09:01:13;100903.47;;;2.72;100.00
77793;BME280;66983;51.438;5.438;2024-01-16T09:03:38;100914.88;;;2.74;100.00
77793;BME280;66983;51.438;5.438;2024-01-16T09:06:04;100913.09;;;2.79;100.00
77793;BME280;66983;51.438;5.438;2024-01-16T09:08:30;100915.72;;;2.79;100.00
77793;BME280;66983;51.438;5.438;2024-01-16T09:10:56;100913.97;;;2.77;100.00
77793;BME280;66983;51.438;5.438;2024-01-16T09:13:22;100916.59;;;2.78;100.00
77793;BME280;66983;51.438;5.438;2024-01-16T09:15:49;100913.97;;;2.80;100.00
77793;BME280;66983;51.438;5.438;2024-01-16T09:18:15;100919.22;;;2.81;100.00
77793;BME280;66983;51.438;5.438;2024-01-16T09:20:44;100913.94;;;2.83;100.00
77793;BME280;66983;51.438;5.438;2024-01-16T09:23:10;100913.06;;;2.84;100.00
77793;BME280;66983;51.438;5.438;2024-01-16T09:25:35;100917.44;;;2.85;100.00
77793;BME280;66983;51.438;5.438;2024-01-16T09:28:01;100910.44;;;2.82;100.00
77793;BME280;66983;51.438;5.438;2024-01-16T09:30:27;100911.31;;;2.84;100.00
77793;BME280;66983;51.438;5.438;2024-01-16T09:32:52;100918.34;;;2.82;100.00
77793;BME280;66983;51.438;5.438;2024-01-16T09:35:18;100913.94;;;2.86;100.00
77793;BME280;66983;51.438;5.438;2024-01-16T09:37:43;100907.75;;;2.88;100.00
77793;BME280;66983;51.438;5.438;2024-01-16T09:40:10;100905.97;;;2.90;100.00
77793;BME280;66983;51.438;5.438;2024-01-16T09:42:36;100905.97;;;2.93;100.00
77793;BME280;66983;51.438;5.438;2024-01-16T09:45:02;100898.09;;;2.90;100.00
77793;BME280;66983;51.438;5.438;2024-01-16T09:47:32;100891.03;;;2.94;100.00
77793;BME280;66983;51.438;5.438;2024-01-16T09:49:59;100896.28;;;2.97;100.00
77793;BME280;66983;51.438;5.438;2024-01-16T09:52:29;100890.13;;;3.01;100.00
77793;BME280;66983;51.438;5.438;2024-01-16T09:54:55;100893.66;;;3.00;100.00
77793;BME280;66983;51.438;5.438;2024-01-16T09:57:25;100890.13;;;3.01;100.00
77793;BME280;66983;51.438;5.438;2024-01-16T09:59:52;100894.50;;;3.03;100.00
77793;BME280;66983;51.438;5.438;2024-01-16T10:02:19;100886.59;;;3.05;100.00
77793;BME280;66983;51.438;5.438;2024-01-16T10:04:46;100881.28;;;3.10;100.00
77793;BME280;66983;51.438;5.438;2024-01-16T10:07:14;100881.31;;;3.06;100.00
77793;BME280;66983;51.438;5.438;2024-01-16T10:09:40;100871.69;;;3.02;100.00
77793;BME280;66983;51.438;5.438;2024-01-16T10:12:06;100884.81;;;3.09;100.00
77793;BME280;66983;51.438;5.438;2024-01-16T10:14:33;100879.53;;;3.12;100.00
77793;BME280;66983;51.438;5.438;2024-01-16T10:17:03;100873.34;;;3.14;100.00
77793;BME280;66983;51.438;5.438;2024-01-16T10:19:52;100881.19;;;3.19;100.00
77793;BME280;66983;51.438;5.438;2024-01-16T10:22:23;100885.59;;;3.20;100.00
77793;BME280;66983;51.438;5.438;2024-01-16T10:25:02;100882.06;;;3.21;100.00
77793;BME280;66983;51.438;5.438;2024-01-16T10:27:29;100882.97;;;3.17;100.00
77793;BME280;66983;51.438;5.438;2024-01-16T10:29:57;100871.63;;;3.12;100.00
77793;BME280;66983;51.438;5.438;2024-01-16T10:32:40;100871.59;;;3.13;100.00
77793;BME280;66983;51.438;5.438;2024-01-16T10:35:09;100857.53;;;3.14;100.00
77793;BME280;66983;51.438;5.438;2024-01-16T10:37:53;100860.19;;;3.13;100.00
77793;BME280;66983;51.438;5.438;2024-01-16T10:40:20;100854.00;;;3.17;100.00
77793;BME280;66983;51.438;5.438;2024-01-16T10:42:57;100854.00;;;3.17;100.00
77793;BME280;66983;51.438;5.438;2024-01-16T10:45:22;100843.44;;;3.20;100.00
77793;BME280;66983;51.438;5.438;2024-01-16T10:47:49;100852.22;;;3.20;100.00
77793;BME280;66983;51.438;5.438;2024-01-16T10:50:25;100860.16;;;3.16;100.00
77793;BME280;66983;51.438;5.438;2024-01-16T10:52:54;100856.63;;;3.17;100.00
77793;BME280;66983;51.438;5.438;2024-01-16T10:55:22;100864.53;;;3.15;100.00
77793;BME280;66983;51.438;5.438;2024-01-16T10:57:49;100849.63;;;3.16;100.00
77793;BME280;66983;51.438;5.438;2024-01-16T11:00:19;100845.22;;;3.16;100.00
77793;BME280;66983;51.438;5.438;2024-01-16T11:03:04;100844.34;;;3.19;100.00
77793;BME280;66983;51.438;5.438;2024-01-16T11:05:35;100838.16;;;3.21;100.00
77793;BME280;66983;51.438;5.438;2024-01-16T11:08:01;100839.00;;;3.26;100.00
77793;BME280;66983;51.438;5.438;2024-01-16T11:10:30;100835.50;;;3.26;100.00
77793;BME280;66983;51.438;5.438;2024-01-16T11:13:00;100831.13;;;3.25;100.00
77793;BME280;66983;51.438;5.438;2024-01-16T11:15:27;100840.69;;;3.33;100.00
77793;BME280;66983;51.438;5.438;2024-01-16T11:17:55;100841.56;;;3.37;100.00
77793;BME280;66983;51.438;5.438;2024-01-16T11:20:25;100826.66;;;3.34;100.00
77793;BME280;66983;51.438;5.438;2024-01-16T11:22:52;100829.28;;;3.33;100.00
77793;BME280;66983;51.438;5.438;2024-01-16T11:25:31;100826.69;;;3.30;100.00
77793;BME280;66983;51.438;5.438;2024-01-16T11:28:08;100830.19;;;3.32;100.00
77793;BME280;66983;51.438;5.438;2024-01-16T11:30:35;100830.19;;;3.32;100.00
77793;BME280;66983;51.438;5.438;2024-01-16T11:33:01;100838.06;;;3.33;100.00
77793;BME280;66983;51.438;5.438;2024-01-16T11:35:34;100843.31;;;3.36;100.00
77793;BME280;66983;51.438;5.438;2024-01-16T11:38:07;100829.34;;;3.28;100.00
77793;BME280;66983;51.438;5.438;2024-01-16T11:40:34;100831.91;;;3.36;100.00
77793;BME280;66983;51.438;5.438;2024-01-16T11:45:57;100823.06;;;3.38;100.00
77793;BME280;66983;51.438;5.438;2024-01-16T11:48:24;100830.16;;;3.33;100.00
77793;BME280;66983;51.438;5.438;2024-01-16T11:50:50;100817.00;;;3.32;100.00
77793;BME280;66983;51.438;5.438;2024-01-16T11:53:35;100822.28;;;3.32;100.00
77793;BME280;66983;51.438;5.438;2024-01-16T11:59:06;100805.50;;;3.40;100.00
77793;BME280;66983;51.438;5.438;2024-01-16T12:01:35;100804.59;;;3.41;100.00
77793;BME280;66983;51.438;5.438;2024-01-16T12:04:05;100801.06;;;3.42;100.00
77793;BME280;66983;51.438;5.438;2024-01-16T12:06:31;100804.53;;;3.49;100.00
77793;BME280;66983;51.438;5.438;2024-01-16T12:09:12;100805.34;;;3.54;100.00
77793;BME280;66983;51.438;5.438;2024-01-16T12:11:39;100800.09;;;3.54;100.00
77793;BME280;66983;51.438;5.438;2024-01-16T12:14:05;100796.56;;;3.54;100.00
77793;BME280;66983;51.438;5.438;2024-01-16T12:16:31;100796.56;;;3.54;100.00
77793;BME280;66983;51.438;5.438;2024-01-16T12:19:07;100784.28;;;3.54;100.00
77793;BME280;66983;51.438;5.438;2024-01-16T12:21:41;100779.88;;;3.55;100.00
77793;BME280;66983;51.438;5.438;2024-01-16T12:24:08;100780.72;;;3.58;100.00
77793;BME280;66983;51.438;5.438;2024-01-16T12:26:34;100775.44;;;3.61;100.00
77793;BME280;66983;51.438;5.438;2024-01-16T12:28:59;100764.97;;;3.52;100.00
77793;BME280;66983;51.438;5.438;2024-01-16T12:31:26;100762.22;;;3.63;100.00
77793;BME280;66983;51.438;5.438;2024-01-16T12:33:52;100754.38;;;3.58;100.00
77793;BME280;66983;51.438;5.438;2024-01-16T12:36:17;100770.94;;;3.68;100.00
77793;BME280;66983;51.438;5.438;2024-01-16T12:38:43;100743.81;;;3.61;100.00
77793;BME280;66983;51.438;5.438;2024-01-16T12:41:11;100759.44;;;3.73;100.00
77793;BME280;66983;51.438;5.438;2024-01-16T12:43:37;100765.59;;;3.74;100.00
77793;BME280;66983;51.438;5.438;2024-01-16T12:46:03;100768.22;;;3.75;100.00
77793;BME280;66983;51.438;5.438;2024-01-16T12:48:28;100770.81;;;3.77;100.00
77793;BME280;66983;51.438;5.438;2024-01-16T12:51:01;100770.81;;;3.79;100.00
77793;BME280;66983;51.438;5.438;2024-01-16T12:53:32;100760.28;;;3.77;100.00